sensor_id;sensor_type;location;lat;lon;timestamp;P1;durP1;ratioP1;P2;durP2;ratioP2
42964;SDS011;28604;51.204;22.552;2023-03-30T00:01:34;21.83;;;10.02;;
42964;SDS011;28604;51.204;22.552;2023-03-30T00:04:00;15.90;;;8.02;;
42964;SDS011;28604;51.204;22.552;2023-03-30T00:06:27;16.02;;;7.70;;
42964;SDS011;28604;51.204;22.552;2023-03-30T00:08:53;17.15;;;7.85;;
42964;SDS011;28604;51.204;22.552;2023-03-30T00:11:22;12.10;;;6.75;;
42964;SDS011;28604;51.204;22.552;2023-03-30T00:13:49;12.70;;;6.95;;
42964;SDS011;28604;51.204;22.552;2023-03-30T00:16:16;14.50;;;6.55;;
42964;SDS011;28604;51.204;22.552;2023-03-30T00:18:43;15.65;;;6.95;;
42964;SDS011;28604;51.204;22.552;2023-03-30T00:21:12;16.95;;;7.13;;
42964;SDS011;28604;51.204;22.552;2023-03-30T00:23:42;15.85;;;7.10;;
42964;SDS011;28604;51.204;22.552;2023-03-30T00:26:11;15.52;;;6.63;;
42964;SDS011;28604;51.204;22.552;2023-03-30T00:28:37;13.95;;;7.05;;
42964;SDS011;28604;51.204;22.552;2023-03-30T00:31:03;14.15;;;6.68;;
42964;SDS011;28604;51.204;22.552;2023-03-30T00:33:29;14.55;;;6.63;;
42964;SDS011;28604;51.204;22.552;2023-03-30T00:35:56;13.40;;;6.55;;
42964;SDS011;28604;51.204;22.552;2023-03-30T00:38:23;12.38;;;6.30;;
42964;SDS011;28604;51.204;22.552;2023-03-30T00:40:52;11.63;;;6.20;;
42964;SDS011;28604;51.204;22.552;2023-03-30T00:43:19;16.00;;;6.20;;
42964;SDS011;28604;51.204;22.552;2023-03-30T00:45:46;12.20;;;6.38;;
42964;SDS011;28604;51.204;22.552;2023-03-30T00:48:13;11.30;;;5.88;;
42964;SDS011;28604;51.204;22.552;2023-03-30T00:53:34;11.23;;;6.80;;
42964;SDS011;28604;51.204;22.552;2023-03-30T00:56:06;15.77;;;6.55;;
42964;SDS011;28604;51.204;22.552;2023-03-30T00:58:35;12.13;;;5.93;;
42964;SDS011;28604;51.204;22.552;2023-03-30T01:01:03;13.98;;;6.05;;
42964;SDS011;28604;51.204;22.552;2023-03-30T01:03:39;16.08;;;7.15;;
42964;SDS011;28604;51.204;22.552;2023-03-30T01:06:10;14.45;;;6.90;;
42964;SDS011;28604;51.204;22.552;2023-03-30T01:08:38;14.35;;;6.47;;
42964;SDS011;28604;51.204;22.552;2023-03-30T01:11:06;16.52;;;6.20;;
42964;SDS011;28604;51.204;22.552;2023-03-30T01:13:33;16.88;;;7.30;;
42964;SDS011;28604;51.204;22.552;2023-03-30T01:18:54;16.23;;;7.13;;
42964;SDS011;28604;51.204;22.552;2023-03-30T01:45:00;14.52;;;6.78;;
42964;SDS011;28604;51.204;22.552;2023-03-30T01:50:02;14.73;;;7.13;;
42964;SDS011;28604;51.204;22.552;2023-03-30T01:52:34;15.85;;;7.13;;
42964;SDS011;28604;51.204;22.552;2023-03-30T01:55:06;12.30;;;6.32;;
42964;SDS011;28604;51.204;22.552;2023-03-30T01:57:49;17.75;;;7.30;;
42964;SDS011;28604;51.204;22.552;2023-03-30T02:00:20;14.98;;;6.53;;
42964;SDS011;28604;51.204;22.552;2023-03-30T02:03:01;14.45;;;6.95;;
42964;SDS011;28604;51.204;22.552;2023-03-30T02:05:35;13.23;;;6.72;;
42964;SDS011;28604;51.204;22.552;2023-03-30T02:08:05;12.90;;;6.38;;
42964;SDS011;28604;51.204;22.552;2023-03-30T02:10:35;15.65;;;6.20;;
42964;SDS011;28604;51.204;22.552;2023-03-30T02:13:02;15.10;;;6.85;;
42964;SDS011;28604;51.204;22.552;2023-03-30T02:15:37;13.40;;;6.35;;
42964;SDS011;28604;51.204;22.552;2023-03-30T02:18:06;15.82;;;6.50;;
42964;SDS011;28604;51.204;22.552;2023-03-30T02:20:33;15.68;;;6.88;;
42964;SDS011;28604;51.204;22.552;2023-03-30T02:23:01;14.77;;;6.45;;
42964;SDS011;28604;51.204;22.552;2023-03-30T02:25:30;15.27;;;6.53;;
42964;SDS011;28604;51.204;22.552;2023-03-30T02:27:57;14.57;;;6.50;;
42964;SDS011;28604;51.204;22.552;2023-03-30T02:30:24;12.10;;;5.72;;
42964;SDS011;28604;51.204;22.552;2023-03-30T02:32:57;14.07;;;5.93;;
42964;SDS011;28604;51.204;22.552;2023-03-30T02:58:54;14.07;;;6.03;;
42964;SDS011;28604;51.204;22.552;2023-03-30T03:01:28;13.90;;;6.05;;
42964;SDS011;28604;51.204;22.552;2023-03-30T03:04:04;12.13;;;5.53;;
42964;SDS011;28604;51.204;22.552;2023-03-30T03:06:49;10.80;;;5.15;;
42964;SDS011;28604;51.204;22.552;2023-03-30T03:09:20;15.30;;;6.22;;
42964;SDS011;28604;51.204;22.552;2023-03-30T03:14:15;13.07;;;5.88;;
42964;SDS011;28604;51.204;22.552;2023-03-30T03:16:44;13.20;;;6.30;;
42964;SDS011;28604;51.204;22.552;2023-03-30T03:19:12;14.88;;;6.18;;
42964;SDS011;28604;51.204;22.552;2023-03-30T03:21:41;14.20;;;6.28;;
42964;SDS011;28604;51.204;22.552;2023-03-30T03:24:07;10.85;;;6.00;;
42964;SDS011;28604;51.204;22.552;2023-03-30T03:26:52;15.43;;;7.22;;
42964;SDS011;28604;51.204;22.552;2023-03-30T03:29:19;10.90;;;5.55;;
42964;SDS011;28604;51.204;22.552;2023-03-30T03:31:47;16.65;;;6.25;;
42964;SDS011;28604;51.204;22.552;2023-03-30T03:34:13;10.90;;;5.50;;
42964;SDS011;28604;51.204;22.552;2023-03-30T03:36:54;14.48;;;6.35;;
42964;SDS011;28604;51.204;22.552;2023-03-30T03:39:24;16.92;;;7.22;;
42964;SDS011;28604;51.204;22.552;2023-03-30T03:41:54;17.42;;;7.30;;
42964;SDS011;28604;51.204;22.552;2023-03-30T03:44:20;13.15;;;6.13;;
42964;SDS011;28604;51.204;22.552;2023-03-30T03:46:46;13.55;;;6.47;;
42964;SDS011;28604;51.204;22.552;2023-03-30T03:49:13;14.45;;;6.10;;
42964;SDS011;28604;51.204;22.552;2023-03-30T03:51:39;15.23;;;5.70;;
42964;SDS011;28604;51.204;22.552;2023-03-30T03:54:06;13.38;;;6.10;;
42964;SDS011;28604;51.204;22.552;2023-03-30T03:56:32;10.30;;;5.18;;
42964;SDS011;28604;51.204;22.552;2023-03-30T03:58:58;15.45;;;6.53;;
42964;SDS011;28604;51.204;22.552;2023-03-30T04:01:27;16.88;;;6.00;;
42964;SDS011;28604;51.204;22.552;2023-03-30T04:03:54;15.45;;;6.32;;
42964;SDS011;28604;51.204;22.552;2023-03-30T04:06:20;12.45;;;5.72;;
42964;SDS011;28604;51.204;22.552;2023-03-30T04:08:46;11.10;;;5.15;;
42964;SDS011;28604;51.204;22.552;2023-03-30T04:11:32;14.00;;;6.25;;
42964;SDS011;28604;51.204;22.552;2023-03-30T04:14:09;11.73;;;5.47;;
42964;SDS011;28604;51.204;22.552;2023-03-30T04:16:45;12.25;;;5.00;;
42964;SDS011;28604;51.204;22.552;2023-03-30T04:19:20;12.63;;;5.38;;
42964;SDS011;28604;51.204;22.552;2023-03-30T04:22:01;10.52;;;5.38;;
42964;SDS011;28604;51.204;22.552;2023-03-30T04:24:49;8.43;;;5.05;;
42964;SDS011;28604;51.204;22.552;2023-03-30T04:27:35;10.32;;;5.03;;
42964;SDS011;28604;51.204;22.552;2023-03-30T04:30:21;15.75;;;5.75;;
42964;SDS011;28604;51.204;22.552;2023-03-30T04:33:06;14.30;;;5.85;;
42964;SDS011;28604;51.204;22.552;2023-03-30T04:35:51;10.77;;;5.93;;
42964;SDS011;28604;51.204;22.552;2023-03-30T04:38:24;11.32;;;5.05;;
42964;SDS011;28604;51.204;22.552;2023-03-30T04:41:08;14.27;;;5.72;;
42964;SDS011;28604;51.204;22.552;2023-03-30T04:43:58;13.57;;;5.97;;
42964;SDS011;28604;51.204;22.552;2023-03-30T04:46:35;12.35;;;6.15;;
42964;SDS011;28604;51.204;22.552;2023-03-30T04:49:16;14.07;;;5.90;;
42964;SDS011;28604;51.204;22.552;2023-03-30T04:52:21;14.57;;;6.35;;
42964;SDS011;28604;51.204;22.552;2023-03-30T04:55:09;11.20;;;5.05;;
42964;SDS011;28604;51.204;22.552;2023-03-30T04:57:54;12.18;;;5.90;;
42964;SDS011;28604;51.204;22.552;2023-03-30T05:00:56;11.32;;;5.30;;
42964;SDS011;28604;51.204;22.552;2023-03-30T05:03:46;15.45;;;6.80;;
42964;SDS011;28604;51.204;22.552;2023-03-30T05:06:27;13.07;;;6.40;;
42964;SDS011;28604;51.204;22.552;2023-03-30T05:09:23;12.07;;;5.68;;
42964;SDS011;28604;51.204;22.552;2023-03-30T05:12:08;13.75;;;6.18;;
42964;SDS011;28604;51.204;22.552;2023-03-30T05:14:42;9.30;;;5.47;;
42964;SDS011;28604;51.204;22.552;2023-03-30T05:17:27;9.98;;;5.82;;
42964;SDS011;28604;51.204;22.552;2023-03-30T05:20:14;13.70;;;5.68;;
42964;SDS011;28604;51.204;22.552;2023-03-30T05:22:59;12.27;;;5.90;;
42964;SDS011;28604;51.204;22.552;2023-03-30T05:25:57;17.92;;;5.80;;
42964;SDS011;28604;51.204;22.552;2023-03-30T05:28:42;15.35;;;6.55;;
42964;SDS011;28604;51.204;22.552;2023-03-30T05:31:36;13.45;;;5.68;;
42964;SDS011;28604;51.204;22.552;2023-03-30T05:34:21;10.68;;;5.93;;
42964;SDS011;28604;51.204;22.552;2023-03-30T05:36:52;9.98;;;5.40;;
42964;SDS011;28604;51.204;22.552;2023-03-30T05:39:37;12.38;;;5.60;;
42964;SDS011;28604;51.204;22.552;2023-03-30T05:42:25;14.20;;;5.57;;
42964;SDS011;28604;51.204;22.552;2023-03-30T05:45:10;10.80;;;5.18;;
42964;SDS011;28604;51.204;22.552;2023-03-30T05:47:54;10.88;;;5.05;;
42964;SDS011;28604;51.204;22.552;2023-03-30T05:50:37;11.45;;;5.20;;
42964;SDS011;28604;51.204;22.552;2023-03-30T05:53:08;11.77;;;5.60;;
42964;SDS011;28604;51.204;22.552;2023-03-30T05:55:58;8.90;;;5.10;;
42964;SDS011;28604;51.204;22.552;2023-03-30T05:58:42;13.55;;;5.35;;
42964;SDS011;28604;51.204;22.552;2023-03-30T06:01:14;14.00;;;5.37;;
42964;SDS011;28604;51.204;22.552;2023-03-30T06:03:43;9.88;;;4.63;;
42964;SDS011;28604;51.204;22.552;2023-03-30T06:06:09;9.38;;;4.28;;
42964;SDS011;28604;51.204;22.552;2023-03-30T06:08:37;11.57;;;5.28;;
42964;SDS011;28604;51.204;22.552;2023-03-30T06:11:05;8.68;;;5.22;;
42964;SDS011;28604;51.204;22.552;2023-03-30T06:13:42;12.60;;;4.78;;
42964;SDS011;28604;51.204;22.552;2023-03-30T06:16:09;9.15;;;4.90;;
42964;SDS011;28604;51.204;22.552;2023-03-30T06:18:36;9.73;;;5.03;;
42964;SDS011;28604;51.204;22.552;2023-03-30T06:21:06;12.70;;;5.50;;
42964;SDS011;28604;51.204;22.552;2023-03-30T06:23:39;10.45;;;4.90;;
42964;SDS011;28604;51.204;22.552;2023-03-30T06:26:12;8.18;;;4.43;;
42964;SDS011;28604;51.204;22.552;2023-03-30T06:28:38;11.02;;;5.10;;
42964;SDS011;28604;51.204;22.552;2023-03-30T06:31:06;13.10;;;4.55;;
42964;SDS011;28604;51.204;22.552;2023-03-30T06:33:36;8.88;;;4.20;;
42964;SDS011;28604;51.204;22.552;2023-03-30T06:36:10;7.68;;;4.05;;
42964;SDS011;28604;51.204;22.552;2023-03-30T06:38:38;11.68;;;4.60;;
42964;SDS011;28604;51.204;22.552;2023-03-30T06:41:05;10.27;;;4.47;;
42964;SDS011;28604;51.204;22.552;2023-03-30T06:43:36;9.05;;;4.30;;
42964;SDS011;28604;51.204;22.552;2023-03-30T06:46:19;12.20;;;3.93;;
42964;SDS011;28604;51.204;22.552;2023-03-30T06:48:47;7.63;;;4.45;;
42964;SDS011;28604;51.204;22.552;2023-03-30T06:51:36;13.10;;;4.38;;
42964;SDS011;28604;51.204;22.552;2023-03-30T06:54:03;9.15;;;4.38;;
42964;SDS011;28604;51.204;22.552;2023-03-30T06:56:30;9.25;;;4.20;;
42964;SDS011;28604;51.204;22.552;2023-03-30T06:59:05;7.20;;;3.60;;
42964;SDS011;28604;51.204;22.552;2023-03-30T07:01:48;10.50;;;4.18;;
42964;SDS011;28604;51.204;22.552;2023-03-30T07:04:35;8.82;;;3.65;;
42964;SDS011;28604;51.204;22.552;2023-03-30T07:07:20;7.90;;;4.40;;
42964;SDS011;28604;51.204;22.552;2023-03-30T07:09:47;11.18;;;4.28;;
42964;SDS011;28604;51.204;22.552;2023-03-30T07:12:13;12.25;;;4.82;;
42964;SDS011;28604;51.204;22.552;2023-03-30T07:14:39;6.35;;;3.33;;
42964;SDS011;28604;51.204;22.552;2023-03-30T07:17:06;6.97;;;4.38;;
42964;SDS011;28604;51.204;22.552;2023-03-30T07:19:32;7.60;;;4.07;;
42964;SDS011;28604;51.204;22.552;2023-03-30T07:21:58;8.63;;;4.80;;
42964;SDS011;28604;51.204;22.552;2023-03-30T07:24:26;10.82;;;4.45;;
42964;SDS011;28604;51.204;22.552;2023-03-30T07:26:54;9.25;;;3.97;;
42964;SDS011;28604;51.204;22.552;2023-03-30T07:29:20;6.82;;;3.92;;
42964;SDS011;28604;51.204;22.552;2023-03-30T07:31:51;9.20;;;3.88;;
42964;SDS011;28604;51.204;22.552;2023-03-30T07:34:18;12.63;;;4.75;;
42964;SDS011;28604;51.204;22.552;2023-03-30T07:36:50;8.27;;;4.13;;
42964;SDS011;28604;51.204;22.552;2023-03-30T07:39:16;9.43;;;4.53;;
42964;SDS011;28604;51.204;22.552;2023-03-30T07:41:44;6.07;;;3.88;;
42964;SDS011;28604;51.204;22.552;2023-03-30T07:44:12;8.35;;;3.95;;
42964;SDS011;28604;51.204;22.552;2023-03-30T07:46:38;8.25;;;3.95;;
42964;SDS011;28604;51.204;22.552;2023-03-30T07:49:09;6.93;;;3.88;;
42964;SDS011;28604;51.204;22.552;2023-03-30T07:51:35;8.57;;;3.95;;
42964;SDS011;28604;51.204;22.552;2023-03-30T07:54:21;6.85;;;3.17;;
42964;SDS011;28604;51.204;22.552;2023-03-30T07:57:07;9.40;;;3.83;;
42964;SDS011;28604;51.204;22.552;2023-03-30T07:59:32;5.63;;;4.28;;
42964;SDS011;28604;51.204;22.552;2023-03-30T08:02:11;7.25;;;4.18;;
42964;SDS011;28604;51.204;22.552;2023-03-30T08:04:44;7.65;;;3.78;;
42964;SDS011;28604;51.204;22.552;2023-03-30T08:07:13;5.78;;;4.07;;
42964;SDS011;28604;51.204;22.552;2023-03-30T08:09:41;8.32;;;4.28;;
42964;SDS011;28604;51.204;22.552;2023-03-30T08:12:10;6.40;;;3.35;;
42964;SDS011;28604;51.204;22.552;2023-03-30T08:14:36;5.55;;;4.13;;
42964;SDS011;28604;51.204;22.552;2023-03-30T08:17:02;7.53;;;4.32;;
42964;SDS011;28604;51.204;22.552;2023-03-30T08:19:28;6.75;;;4.15;;
42964;SDS011;28604;51.204;22.552;2023-03-30T08:21:54;9.10;;;4.25;;
42964;SDS011;28604;51.204;22.552;2023-03-30T08:24:25;5.03;;;4.00;;
42964;SDS011;28604;51.204;22.552;2023-03-30T08:26:52;6.07;;;4.38;;
42964;SDS011;28604;51.204;22.552;2023-03-30T08:29:17;6.50;;;4.03;;
42964;SDS011;28604;51.204;22.552;2023-03-30T08:31:44;8.05;;;4.13;;
42964;SDS011;28604;51.204;22.552;2023-03-30T08:34:11;5.72;;;4.13;;
42964;SDS011;28604;51.204;22.552;2023-03-30T08:36:37;5.88;;;3.83;;
42964;SDS011;28604;51.204;22.552;2023-03-30T09:13:35;5.97;;;4.05;;
42964;SDS011;28604;51.204;22.552;2023-03-30T09:18:37;6.88;;;4.15;;
42964;SDS011;28604;51.204;22.552;2023-03-30T09:21:05;8.45;;;4.05;;
42964;SDS011;28604;51.204;22.552;2023-03-30T09:23:36;5.50;;;4.00;;
42964;SDS011;28604;51.204;22.552;2023-03-30T09:34:37;6.03;;;3.50;;
42964;SDS011;28604;51.204;22.552;2023-03-30T09:37:15;6.20;;;3.88;;
42964;SDS011;28604;51.204;22.552;2023-03-30T09:39:43;8.40;;;3.80;;
42964;SDS011;28604;51.204;22.552;2023-03-30T09:47:52;5.53;;;3.83;;
42964;SDS011;28604;51.204;22.552;2023-03-30T09:50:25;6.78;;;4.10;;
42964;SDS011;28604;51.204;22.552;2023-03-30T09:52:55;5.57;;;4.18;;
42964;SDS011;28604;51.204;22.552;2023-03-30T09:55:27;11.23;;;3.95;;
42964;SDS011;28604;51.204;22.552;2023-03-30T09:58:12;4.97;;;3.75;;
42964;SDS011;28604;51.204;22.552;2023-03-30T10:00:44;5.15;;;3.88;;
42964;SDS011;28604;51.204;22.552;2023-03-30T10:03:21;7.43;;;3.80;;
42964;SDS011;28604;51.204;22.552;2023-03-30T10:05:59;11.10;;;4.05;;
42964;SDS011;28604;51.204;22.552;2023-03-30T10:08:29;4.90;;;3.50;;
42964;SDS011;28604;51.204;22.552;2023-03-30T10:10:56;7.63;;;3.60;;
42964;SDS011;28604;51.204;22.552;2023-03-30T10:13:30;3.95;;;3.22;;
42964;SDS011;28604;51.204;22.552;2023-03-30T10:16:16;3.50;;;3.20;;
42964;SDS011;28604;51.204;22.552;2023-03-30T10:18:52;7.30;;;4.03;;
42964;SDS011;28604;51.204;22.552;2023-03-30T10:21:20;5.70;;;3.80;;
42964;SDS011;28604;51.204;22.552;2023-03-30T10:24:02;3.38;;;2.88;;
42964;SDS011;28604;51.204;22.552;2023-03-30T10:26:34;5.45;;;3.50;;
42964;SDS011;28604;51.204;22.552;2023-03-30T10:29:05;4.22;;;3.20;;
42964;SDS011;28604;51.204;22.552;2023-03-30T10:31:35;5.72;;;3.20;;
42964;SDS011;28604;51.204;22.552;2023-03-30T10:34:04;3.08;;;2.58;;
42964;SDS011;28604;51.204;22.552;2023-03-30T10:36:38;5.55;;;3.25;;
42964;SDS011;28604;51.204;22.552;2023-03-30T10:39:06;4.07;;;3.40;;
42964;SDS011;28604;51.204;22.552;2023-03-30T10:41:33;3.55;;;2.65;;
42964;SDS011;28604;51.204;22.552;2023-03-30T10:44:45;4.80;;;3.13;;
42964;SDS011;28604;51.204;22.552;2023-03-30T10:47:01;8.70;;;3.00;;
42964;SDS011;28604;51.204;22.552;2023-03-30T10:49:49;5.60;;;3.60;;
42964;SDS011;28604;51.204;22.552;2023-03-30T10:52:31;3.67;;;3.30;;
42964;SDS011;28604;51.204;22.552;2023-03-30T10:55:06;7.20;;;2.95;;
42964;SDS011;28604;51.204;22.552;2023-03-30T10:57:55;6.72;;;3.88;;
42964;SDS011;28604;51.204;22.552;2023-03-30T11:03:15;4.88;;;3.22;;
42964;SDS011;28604;51.204;22.552;2023-03-30T11:05:55;6.22;;;3.42;;
42964;SDS011;28604;51.204;22.552;2023-03-30T11:08:40;4.88;;;3.28;;
42964;SDS011;28604;51.204;22.552;2023-03-30T11:11:21;5.28;;;3.17;;
42964;SDS011;28604;51.204;22.552;2023-03-30T11:13:54;4.43;;;3.42;;
42964;SDS011;28604;51.204;22.552;2023-03-30T11:16:41;6.60;;;3.42;;
42964;SDS011;28604;51.204;22.552;2023-03-30T11:21:53;3.25;;;2.95;;
42964;SDS011;28604;51.204;22.552;2023-03-30T11:24:27;6.18;;;3.40;;
42964;SDS011;28604;51.204;22.552;2023-03-30T11:29:41;3.38;;;2.90;;
42964;SDS011;28604;51.204;22.552;2023-03-30T11:38:15;9.00;;;4.35;;
42964;SDS011;28604;51.204;22.552;2023-03-30T11:40:59;7.47;;;3.53;;
42964;SDS011;28604;51.204;22.552;2023-03-30T11:43:30;4.35;;;3.60;;
42964;SDS011;28604;51.204;22.552;2023-03-30T11:46:11;6.43;;;3.78;;
42964;SDS011;28604;51.204;22.552;2023-03-30T11:48:52;6.60;;;3.13;;
42964;SDS011;28604;51.204;22.552;2023-03-30T11:59:47;5.07;;;3.53;;
42964;SDS011;28604;51.204;22.552;2023-03-30T12:02:34;4.78;;;3.45;;
42964;SDS011;28604;51.204;22.552;2023-03-30T12:08:34;6.00;;;3.65;;
42964;SDS011;28604;51.204;22.552;2023-03-30T12:11:11;5.28;;;2.95;;
42964;SDS011;28604;51.204;22.552;2023-03-30T12:13:49;4.30;;;2.85;;
42964;SDS011;28604;51.204;22.552;2023-03-30T12:16:17;3.30;;;3.08;;
42964;SDS011;28604;51.204;22.552;2023-03-30T12:24:22;4.22;;;2.42;;
42964;SDS011;28604;51.204;22.552;2023-03-30T12:27:03;3.35;;;1.98;;
42964;SDS011;28604;51.204;22.552;2023-03-30T12:29:42;3.67;;;2.88;;
42964;SDS011;28604;51.204;22.552;2023-03-30T12:34:54;3.25;;;2.75;;
42964;SDS011;28604;51.204;22.552;2023-03-30T12:37:22;7.15;;;3.03;;
42964;SDS011;28604;51.204;22.552;2023-03-30T12:42:37;4.13;;;2.80;;
42964;SDS011;28604;51.204;22.552;2023-03-30T12:50:40;5.45;;;2.65;;
42964;SDS011;28604;51.204;22.552;2023-03-30T12:53:33;2.38;;;2.20;;
42964;SDS011;28604;51.204;22.552;2023-03-30T13:05:34;4.00;;;2.25;;
42964;SDS011;28604;51.204;22.552;2023-03-30T13:11:08;2.53;;;2.33;;
42964;SDS011;28604;51.204;22.552;2023-03-30T13:30:09;2.97;;;2.33;;
42964;SDS011;28604;51.204;22.552;2023-03-30T13:38:17;4.35;;;2.40;;
42964;SDS011;28604;51.204;22.552;2023-03-30T13:46:11;4.03;;;1.92;;
42964;SDS011;28604;51.204;22.552;2023-03-30T13:48:55;3.60;;;2.30;;
42964;SDS011;28604;51.204;22.552;2023-03-30T13:51:30;7.82;;;2.55;;
42964;SDS011;28604;51.204;22.552;2023-03-30T13:54:01;4.00;;;2.20;;
42964;SDS011;28604;51.204;22.552;2023-03-30T13:56:35;7.00;;;2.85;;
42964;SDS011;28604;51.204;22.552;2023-03-30T13:59:11;4.47;;;2.15;;
42964;SDS011;28604;51.204;22.552;2023-03-30T14:01:40;4.30;;;2.00;;
42964;SDS011;28604;51.204;22.552;2023-03-30T14:06:40;4.07;;;2.03;;
42964;SDS011;28604;51.204;22.552;2023-03-30T14:09:17;2.53;;;1.92;;
42964;SDS011;28604;51.204;22.552;2023-03-30T14:11:50;3.58;;;2.05;;
42964;SDS011;28604;51.204;22.552;2023-03-30T14:14:26;4.72;;;2.78;;
42964;SDS011;28604;51.204;22.552;2023-03-30T14:16:59;3.85;;;2.45;;
42964;SDS011;28604;51.204;22.552;2023-03-30T14:19:31;3.10;;;2.63;;
42964;SDS011;28604;51.204;22.552;2023-03-30T14:22:00;5.47;;;2.88;;
42964;SDS011;28604;51.204;22.552;2023-03-30T14:24:35;2.70;;;2.15;;
42964;SDS011;28604;51.204;22.552;2023-03-30T14:29:32;4.07;;;2.47;;
42964;SDS011;28604;51.204;22.552;2023-03-30T14:31:59;2.90;;;2.38;;
42964;SDS011;28604;51.204;22.552;2023-03-30T14:36:54;3.35;;;1.88;;
42964;SDS011;28604;51.204;22.552;2023-03-30T14:39:24;6.03;;;2.05;;
42964;SDS011;28604;51.204;22.552;2023-03-30T14:41:51;4.70;;;2.83;;
42964;SDS011;28604;51.204;22.552;2023-03-30T14:44:18;5.03;;;2.80;;
42964;SDS011;28604;51.204;22.552;2023-03-30T14:46:49;2.97;;;2.78;;
42964;SDS011;28604;51.204;22.552;2023-03-30T14:49:20;4.43;;;2.70;;
42964;SDS011;28604;51.204;22.552;2023-03-30T14:51:51;3.80;;;2.97;;
42964;SDS011;28604;51.204;22.552;2023-03-30T14:54:23;5.30;;;3.38;;
42964;SDS011;28604;51.204;22.552;2023-03-30T14:56:52;4.60;;;2.72;;
42964;SDS011;28604;51.204;22.552;2023-03-30T14:59:22;5.05;;;2.63;;
42964;SDS011;28604;51.204;22.552;2023-03-30T15:01:51;4.45;;;2.65;;
42964;SDS011;28604;51.204;22.552;2023-03-30T15:04:17;4.38;;;2.70;;
42964;SDS011;28604;51.204;22.552;2023-03-30T15:06:46;4.78;;;2.97;;
42964;SDS011;28604;51.204;22.552;2023-03-30T15:09:19;4.18;;;2.90;;
42964;SDS011;28604;51.204;22.552;2023-03-30T15:11:51;6.55;;;2.72;;
42964;SDS011;28604;51.204;22.552;2023-03-30T15:14:32;5.93;;;3.35;;
42964;SDS011;28604;51.204;22.552;2023-03-30T15:17:07;5.30;;;3.28;;
42964;SDS011;28604;51.204;22.552;2023-03-30T15:19:38;3.90;;;2.88;;
42964;SDS011;28604;51.204;22.552;2023-03-30T15:22:12;4.57;;;2.50;;
42964;SDS011;28604;51.204;22.552;2023-03-30T15:24:57;5.60;;;3.63;;
42964;SDS011;28604;51.204;22.552;2023-03-30T15:27:26;4.65;;;2.85;;
42964;SDS011;28604;51.204;22.552;2023-03-30T15:29:53;4.13;;;3.38;;
42964;SDS011;28604;51.204;22.552;2023-03-30T15:32:22;4.65;;;3.20;;
42964;SDS011;28604;51.204;22.552;2023-03-30T15:37:38;7.07;;;3.70;;
42964;SDS011;28604;51.204;22.552;2023-03-30T15:40:28;7.78;;;4.43;;
42964;SDS011;28604;51.204;22.552;2023-03-30T15:45:55;8.48;;;4.20;;
42964;SDS011;28604;51.204;22.552;2023-03-30T15:48:25;8.63;;;4.25;;
42964;SDS011;28604;51.204;22.552;2023-03-30T15:51:04;7.07;;;4.03;;
42964;SDS011;28604;51.204;22.552;2023-03-30T15:53:46;7.25;;;4.88;;
42964;SDS011;28604;51.204;22.552;2023-03-30T15:56:25;8.38;;;4.78;;
42964;SDS011;28604;51.204;22.552;2023-03-30T15:58:52;12.40;;;4.75;;
42964;SDS011;28604;51.204;22.552;2023-03-30T16:01:18;9.18;;;5.20;;
42964;SDS011;28604;51.204;22.552;2023-03-30T16:03:55;14.25;;;5.43;;
42964;SDS011;28604;51.204;22.552;2023-03-30T16:06:24;9.50;;;5.28;;
42964;SDS011;28604;51.204;22.552;2023-03-30T16:08:50;7.78;;;4.70;;
42964;SDS011;28604;51.204;22.552;2023-03-30T16:11:16;8.55;;;4.50;;
42964;SDS011;28604;51.204;22.552;2023-03-30T16:13:44;9.20;;;5.30;;
42964;SDS011;28604;51.204;22.552;2023-03-30T16:16:12;8.50;;;4.65;;
42964;SDS011;28604;51.204;22.552;2023-03-30T16:18:40;8.95;;;5.28;;
42964;SDS011;28604;51.204;22.552;2023-03-30T16:21:06;7.07;;;4.63;;
42964;SDS011;28604;51.204;22.552;2023-03-30T16:23:33;8.85;;;5.03;;
42964;SDS011;28604;51.204;22.552;2023-03-30T16:25:59;7.00;;;4.85;;
42964;SDS011;28604;51.204;22.552;2023-03-30T16:28:25;9.93;;;5.40;;
42964;SDS011;28604;51.204;22.552;2023-03-30T16:30:51;11.80;;;6.07;;
42964;SDS011;28604;51.204;22.552;2023-03-30T16:33:19;15.23;;;8.52;;
42964;SDS011;28604;51.204;22.552;2023-03-30T16:35:45;10.40;;;5.85;;
42964;SDS011;28604;51.204;22.552;2023-03-30T16:38:15;11.70;;;6.55;;
42964;SDS011;28604;51.204;22.552;2023-03-30T16:40:46;10.23;;;4.95;;
42964;SDS011;28604;51.204;22.552;2023-03-30T16:43:17;8.45;;;4.93;;
42964;SDS011;28604;51.204;22.552;2023-03-30T16:45:43;8.68;;;5.43;;
42964;SDS011;28604;51.204;22.552;2023-03-30T16:48:11;10.13;;;5.72;;
42964;SDS011;28604;51.204;22.552;2023-03-30T16:50:40;7.22;;;4.50;;
42964;SDS011;28604;51.204;22.552;2023-03-30T16:53:08;6.57;;;4.63;;
42964;SDS011;28604;51.204;22.552;2023-03-30T16:55:35;7.88;;;5.55;;
42964;SDS011;28604;51.204;22.552;2023-03-30T16:58:01;10.40;;;5.78;;
42964;SDS011;28604;51.204;22.552;2023-03-30T17:00:44;9.95;;;5.88;;
42964;SDS011;28604;51.204;22.552;2023-03-30T17:03:16;8.70;;;5.07;;
42964;SDS011;28604;51.204;22.552;2023-03-30T17:05:43;8.25;;;5.25;;
42964;SDS011;28604;51.204;22.552;2023-03-30T17:13:15;10.55;;;5.70;;
42964;SDS011;28604;51.204;22.552;2023-03-30T17:15:41;9.18;;;5.68;;
42964;SDS011;28604;51.204;22.552;2023-03-30T17:18:15;14.43;;;5.70;;
42964;SDS011;28604;51.204;22.552;2023-03-30T17:20:52;7.00;;;5.55;;
42964;SDS011;28604;51.204;22.552;2023-03-30T17:23:21;8.30;;;6.10;;
42964;SDS011;28604;51.204;22.552;2023-03-30T17:25:48;14.50;;;6.20;;
42964;SDS011;28604;51.204;22.552;2023-03-30T17:28:19;8.73;;;5.60;;
42964;SDS011;28604;51.204;22.552;2023-03-30T17:30:57;11.32;;;6.28;;
42964;SDS011;28604;51.204;22.552;2023-03-30T17:33:25;9.32;;;6.15;;
42964;SDS011;28604;51.204;22.552;2023-03-30T17:35:55;11.88;;;6.68;;
42964;SDS011;28604;51.204;22.552;2023-03-30T17:40:50;10.45;;;6.90;;
42964;SDS011;28604;51.204;22.552;2023-03-30T17:43:16;13.60;;;7.50;;
42964;SDS011;28604;51.204;22.552;2023-03-30T17:45:42;9.48;;;6.55;;
42964;SDS011;28604;51.204;22.552;2023-03-30T17:48:10;13.30;;;7.53;;
42964;SDS011;28604;51.204;22.552;2023-03-30T17:50:39;15.07;;;6.57;;
42964;SDS011;28604;51.204;22.552;2023-03-30T17:53:08;10.10;;;6.30;;
42964;SDS011;28604;51.204;22.552;2023-03-30T17:55:37;14.27;;;7.50;;
42964;SDS011;28604;51.204;22.552;2023-03-30T17:58:07;15.48;;;7.05;;
42964;SDS011;28604;51.204;22.552;2023-03-30T18:00:39;10.45;;;6.57;;
42964;SDS011;28604;51.204;22.552;2023-03-30T18:03:06;12.32;;;7.65;;
42964;SDS011;28604;51.204;22.552;2023-03-30T18:05:32;11.90;;;7.68;;
42964;SDS011;28604;51.204;22.552;2023-03-30T18:07:59;12.63;;;7.47;;
42964;SDS011;28604;51.204;22.552;2023-03-30T18:10:26;15.70;;;7.80;;
42964;SDS011;28604;51.204;22.552;2023-03-30T18:12:57;11.20;;;7.47;;
42964;SDS011;28604;51.204;22.552;2023-03-30T18:15:24;11.48;;;7.22;;
42964;SDS011;28604;51.204;22.552;2023-03-30T18:17:52;11.50;;;7.20;;
42964;SDS011;28604;51.204;22.552;2023-03-30T18:20:32;15.70;;;7.28;;
42964;SDS011;28604;51.204;22.552;2023-03-30T18:23:03;14.07;;;8.23;;
42964;SDS011;28604;51.204;22.552;2023-03-30T18:25:29;13.05;;;7.32;;
42964;SDS011;28604;51.204;22.552;2023-03-30T18:27:56;11.82;;;8.13;;
42964;SDS011;28604;51.204;22.552;2023-03-30T18:30:37;10.05;;;7.20;;
42964;SDS011;28604;51.204;22.552;2023-03-30T18:33:04;11.63;;;7.57;;